sensor_id;sensor_type;location;lat;lon;timestamp;temperature;humidity
40556;DHT22;26250;45.422;11.100;2022-11-15T08:33:54;10.00;99.90
40556;DHT22;26250;45.422;11.100;2022-11-15T08:36:40;10.10;99.90
40556;DHT22;26250;45.422;11.100;2022-11-15T08:39:30;10.20;99.90
40556;DHT22;26250;45.422;11.100;2022-11-15T08:42:16;10.20;99.90
40556;DHT22;26250;45.422;11.100;2022-11-15T08:45:05;10.20;99.90
40556;DHT22;26250;45.422;11.100;2022-11-15T08:47:50;10.20;99.90
40556;DHT22;26250;45.422;11.100;2022-11-15T08:50:38;10.10;99.90
40556;DHT22;26250;45.422;11.100;2022-11-15T08:53:24;10.20;99.90
40556;DHT22;26250;45.422;11.100;2022-11-15T08:56:14;10.30;99.90
40556;DHT22;26250;45.422;11.100;2022-11-15T08:59:00;10.30;99.90
40556;DHT22;26250;45.422;11.100;2022-11-15T09:01:46;10.40;99.90
40556;DHT22;26250;45.422;11.100;2022-11-15T09:04:31;10.30;99.90
40556;DHT22;26250;45.422;11.100;2022-11-15T09:07:20;10.20;99.90
40556;DHT22;26250;45.422;11.100;2022-11-15T09:10:06;10.10;99.90
40556;DHT22;26250;45.422;11.100;2022-11-15T09:12:57;10.20;99.90
40556;DHT22;26250;45.422;11.100;2022-11-15T09:15:42;10.20;99.90
40556;DHT22;26250;45.422;11.100;2022-11-15T09:18:28;10.30;99.90
40556;DHT22;26250;45.422;11.100;2022-11-15T09:21:15;10.40;99.90
40556;DHT22;26250;45.422;11.100;2022-11-15T09:24:03;10.40;99.90
40556;DHT22;26250;45.422;11.100;2022-11-15T09:26:50;10.50;99.90
40556;DHT22;26250;45.422;11.100;2022-11-15T09:29:36;10.60;99.90
40556;DHT22;26250;45.422;11.100;2022-11-15T09:32:22;10.70;99.90
40556;DHT22;26250;45.422;11.100;2022-11-15T09:35:09;10.70;99.90
40556;DHT22;26250;45.422;11.100;2022-11-15T09:37:54;10.70;99.90
40556;DHT22;26250;45.422;11.100;2022-11-15T09:40:41;10.70;99.90
40556;DHT22;26250;45.422;11.100;2022-11-15T09:43:49;10.80;99.90
40556;DHT22;26250;45.422;11.100;2022-11-15T09:49:55;10.90;99.90
40556;DHT22;26250;45.422;11.100;2022-11-15T09:52:31;10.90;99.90
40556;DHT22;26250;45.422;11.100;2022-11-15T09:55:00;10.90;99.90
40556;DHT22;26250;45.422;11.100;2022-11-15T09:57:50;10.90;99.90
40556;DHT22;26250;45.422;11.100;2022-11-15T10:00:39;11.00;99.90
40556;DHT22;26250;45.422;11.100;2022-11-15T10:03:16;11.00;99.90
40556;DHT22;26250;45.422;11.100;2022-11-15T10:05:49;11.00;99.90
40556;DHT22;26250;45.422;11.100;2022-11-15T10:10:59;11.20;99.90
40556;DHT22;26250;45.422;11.100;2022-11-15T10:13:48;11.20;99.90
40556;DHT22;26250;45.422;11.100;2022-11-15T10:19:35;11.10;99.90
40556;DHT22;26250;45.422;11.100;2022-11-15T10:22:32;11.00;99.90
40556;DHT22;26250;45.422;11.100;2022-11-15T10:28:31;11.20;99.90
40556;DHT22;26250;45.422;11.100;2022-11-15T10:30:37;11.10;99.90
40556;DHT22;26250;45.422;11.100;2022-11-15T10:41:27;11.10;99.90
40556;DHT22;26250;45.422;11.100;2022-11-15T10:47:05;11.20;99.90
40556;DHT22;26250;45.422;11.100;2022-11-15T10:49:34;11.30;99.90
40556;DHT22;26250;45.422;11.100;2022-11-15T10:52:20;11.30;99.90
40556;DHT22;26250;45.422;11.100;2022-11-15T10:57:32;11.30;99.90
40556;DHT22;26250;45.422;11.100;2022-11-15T11:06:02;11.40;99.90
40556;DHT22;26250;45.422;11.100;2022-11-15T11:08:30;11.40;99.90
40556;DHT22;26250;45.422;11.100;2022-11-15T11:11:01;11.40;99.90
40556;DHT22;26250;45.422;11.100;2022-11-15T11:13:30;11.50;99.90
40556;DHT22;26250;45.422;11.100;2022-11-15T11:16:19;11.50;99.90
40556;DHT22;26250;45.422;11.100;2022-11-15T11:19:28;11.50;99.90
40556;DHT22;26250;45.422;11.100;2022-11-15T11:22:23;11.50;99.90
40556;DHT22;26250;45.422;11.100;2022-11-15T11:33:31;11.70;99.90
40556;DHT22;26250;45.422;11.100;2022-11-15T11:38:58;11.60;99.90
40556;DHT22;26250;45.422;11.100;2022-11-15T11:50:13;11.70;99.90
40556;DHT22;26250;45.422;11.100;2022-11-15T11:55:51;11.70;99.90
40556;DHT22;26250;45.422;11.100;2022-11-15T11:58:31;11.80;99.90
40556;DHT22;26250;45.422;11.100;2022-11-15T12:01:27;11.70;99.90
40556;DHT22;26250;45.422;11.100;2022-11-15T12:04:08;11.70;99.90
40556;DHT22;26250;45.422;11.100;2022-11-15T12:09:39;11.60;99.90
40556;DHT22;26250;45.422;11.100;2022-11-15T12:12:30;11.70;99.90
40556;DHT22;26250;45.422;11.100;2022-11-15T12:15:12;11.70;99.90
40556;DHT22;26250;45.422;11.100;2022-11-15T12:17:41;11.70;99.90
40556;DHT22;26250;45.422;11.100;2022-11-15T12:22:54;11.80;99.90
40556;DHT22;26250;45.422;11.100;2022-11-15T12:25:24;11.80;99.90
40556;DHT22;26250;45.422;11.100;2022-11-15T12:31:47;11.70;99.90
40556;DHT22;26250;45.422;11.100;2022-11-15T12:33:48;11.70;99.90
40556;DHT22;26250;45.422;11.100;2022-11-15T12:38:59;11.70;99.90
40556;DHT22;26250;45.422;11.100;2022-11-15T12:41:40;11.80;99.90
40556;DHT22;26250;45.422;11.100;2022-11-15T12:44:12;11.80;99.90
40556;DHT22;26250;45.422;11.100;2022-11-15T13:00:35;11.70;99.90
40556;DHT22;26250;45.422;11.100;2022-11-15T13:03:18;11.80;99.90
40556;DHT22;26250;45.422;11.100;2022-11-15T13:05:51;11.90;99.90
40556;DHT22;26250;45.422;11.100;2022-11-15T13:08:37;11.90;99.90
40556;DHT22;26250;45.422;11.100;2022-11-15T13:11:43;12.00;99.90
40556;DHT22;26250;45.422;11.100;2022-11-15T13:14:44;12.00;99.90
40556;DHT22;26250;45.422;11.100;2022-11-15T13:22:42;12.00;99.90
40556;DHT22;26250;45.422;11.100;2022-11-15T19:00:36;12.30;99.90
40556;DHT22;26250;45.422;11.100;2022-11-15T19:03:03;12.30;99.90
40556;DHT22;26250;45.422;11.100;2022-11-15T19:05:30;12.30;99.90
40556;DHT22;26250;45.422;11.100;2022-11-15T19:07:57;12.30;99.90
40556;DHT22;26250;45.422;11.100;2022-11-15T19:10:24;12.30;99.90
40556;DHT22;26250;45.422;11.100;2022-11-15T19:12:51;12.30;99.90
40556;DHT22;26250;45.422;11.100;2022-11-15T19:15:18;12.20;99.90
40556;DHT22;26250;45.422;11.100;2022-11-15T19:17:45;12.20;99.90
40556;DHT22;26250;45.422;11.100;2022-11-15T19:20:11;12.20;99.90
40556;DHT22;26250;45.422;11.100;2022-11-15T19:22:41;12.10;99.90
40556;DHT22;26250;45.422;11.100;2022-11-15T19:25:08;12.10;99.90
40556;DHT22;26250;45.422;11.100;2022-11-15T19:27:36;12.10;99.90
40556;DHT22;26250;45.422;11.100;2022-11-15T19:30:04;12.10;99.90
40556;DHT22;26250;45.422;11.100;2022-11-15T19:32:31;12.10;99.90
40556;DHT22;26250;45.422;11.100;2022-11-15T19:34:58;12.20;99.90
40556;DHT22;26250;45.422;11.100;2022-11-15T19:37:25;12.20;99.90
40556;DHT22;26250;45.422;11.100;2022-11-15T19:39:51;12.20;99.90
40556;DHT22;26250;45.422;11.100;2022-11-15T19:42:18;12.20;99.90
40556;DHT22;26250;45.422;11.100;2022-11-15T19:44:45;12.20;99.90
40556;DHT22;26250;45.422;11.100;2022-11-15T19:47:12;12.20;99.90
40556;DHT22;26250;45.422;11.100;2022-11-15T19:49:42;12.20;99.90
40556;DHT22;26250;45.422;11.100;2022-11-15T19:52:09;12.20;99.90
40556;DHT22;26250;45.422;11.100;2022-11-15T19:54:35;12.20;99.90
40556;DHT22;26250;45.422;11.100;2022-11-15T19:57:02;12.20;99.90
40556;DHT22;26250;45.422;11.100;2022-11-15T19:59:29;12.20;99.90
40556;DHT22;26250;45.422;11.100;2022-11-15T20:01:56;12.20;99.90
40556;DHT22;26250;45.422;11.100;2022-11-15T20:04:23;12.20;99.90
40556;DHT22;26250;45.422;11.100;2022-11-15T20:06:50;12.20;99.90
40556;DHT22;26250;45.422;11.100;2022-11-15T20:09:17;12.20;99.90
40556;DHT22;26250;45.422;11.100;2022-11-15T20:11:44;12.20;99.90
40556;DHT22;26250;45.422;11.100;2022-11-15T20:14:11;12.20;99.90
40556;DHT22;26250;45.422;11.100;2022-11-15T20:16:38;12.10;99.90
40556;DHT22;26250;45.422;11.100;2022-11-15T20:19:05;12.10;99.90
40556;DHT22;26250;45.422;11.100;2022-11-15T20:21:34;12.20;99.90
40556;DHT22;26250;45.422;11.100;2022-11-15T20:24:02;12.20;99.90
40556;DHT22;26250;45.422;11.100;2022-11-15T20:26:29;12.30;99.90
40556;DHT22;26250;45.422;11.100;2022-11-15T20:28:59;12.30;99.90
40556;DHT22;26250;45.422;11.100;2022-11-15T20:31:29;12.30;99.90
40556;DHT22;26250;45.422;11.100;2022-11-15T20:33:57;12.30;99.90
40556;DHT22;26250;45.422;11.100;2022-11-15T20:36:24;12.20;99.90
40556;DHT22;26250;45.422;11.100;2022-11-15T20:38:56;12.20;99.90
40556;DHT22;26250;45.422;11.100;2022-11-15T20:41:25;12.20;99.90
40556;DHT22;26250;45.422;11.100;2022-11-15T20:43:53;12.30;99.90
40556;DHT22;26250;45.422;11.100;2022-11-15T20:46:21;12.30;99.90
40556;DHT22;26250;45.422;11.100;2022-11-15T20:48:49;12.20;99.90
40556;DHT22;26250;45.422;11.100;2022-11-15T20:51:18;12.30;99.90
40556;DHT22;26250;45.422;11.100;2022-11-15T20:53:47;12.30;99.90
40556;DHT22;26250;45.422;11.100;2022-11-15T20:56:20;12.30;99.90
40556;DHT22;26250;45.422;11.100;2022-11-15T20:58:49;12.30;99.90
40556;DHT22;26250;45.422;11.100;2022-11-15T21:01:18;12.20;99.90
40556;DHT22;26250;45.422;11.100;2022-11-15T21:03:52;12.30;99.90
40556;DHT22;26250;45.422;11.100;2022-11-15T21:06:24;12.30;99.90
40556;DHT22;26250;45.422;11.100;2022-11-15T21:08:53;12.20;99.90
40556;DHT22;26250;45.422;11.100;2022-11-15T21:11:40;12.20;99.90
40556;DHT22;26250;45.422;11.100;2022-11-15T21:14:31;12.20;99.90
40556;DHT22;26250;45.422;11.100;2022-11-15T21:16:59;12.20;99.90
40556;DHT22;26250;45.422;11.100;2022-11-15T21:19:29;12.20;99.90
40556;DHT22;26250;45.422;11.100;2022-11-15T21:22:03;12.30;99.90
40556;DHT22;26250;45.422;11.100;2022-11-15T21:24:31;12.30;99.90
40556;DHT22;26250;45.422;11.100;2022-11-15T21:26:58;12.30;99.90
40556;DHT22;26250;45.422;11.100;2022-11-15T21:29:25;12.40;99.90
40556;DHT22;26250;45.422;11.100;2022-11-15T21:31:54;12.30;99.90
40556;DHT22;26250;45.422;11.100;2022-11-15T21:34:21;12.40;99.90
40556;DHT22;26250;45.422;11.100;2022-11-15T21:36:47;12.40;99.90
40556;DHT22;26250;45.422;11.100;2022-11-15T21:39:14;12.30;99.90
40556;DHT22;26250;45.422;11.100;2022-11-15T21:41:42;12.40;99.90
40556;DHT22;26250;45.422;11.100;2022-11-15T21:44:11;12.40;99.90
40556;DHT22;26250;45.422;11.100;2022-11-15T21:46:38;12.40;99.90
40556;DHT22;26250;45.422;11.100;2022-11-15T21:49:05;12.40;99.90
40556;DHT22;26250;45.422;11.100;2022-11-15T21:51:32;12.30;99.90
40556;DHT22;26250;45.422;11.100;2022-11-15T21:54:00;12.40;99.90
40556;DHT22;26250;45.422;11.100;2022-11-15T21:56:28;12.30;99.90
40556;DHT22;26250;45.422;11.100;2022-11-15T21:58:55;12.30;99.90
40556;DHT22;26250;45.422;11.100;2022-11-15T22:01:23;12.20;99.90
40556;DHT22;26250;45.422;11.100;2022-11-15T22:04:09;12.20;99.90
